createdAt,value
2019-02-25T00:00:49.420Z,55.10
2019-02-25T00:03:19.066Z,54.90
2019-02-25T00:05:48.489Z,54.80
2019-02-25T00:08:18.038Z,54.90
2019-02-25T00:10:47.460Z,54.50
2019-02-25T00:13:16.911Z,54.30
2019-02-25T00:15:46.416Z,54.10
2019-02-25T00:18:15.856Z,54.90
2019-02-25T00:20:45.294Z,55.60
2019-02-25T00:23:14.740Z,55.70
2019-02-25T00:25:44.164Z,55.60
2019-02-25T00:28:13.610Z,56.10
2019-02-25T00:30:43.042Z,56.00
2019-02-25T00:33:12.588Z,56.00
2019-02-25T00:35:42.044Z,56.30
2019-02-25T00:38:11.502Z,57.20
2019-02-25T00:40:40.937Z,57.10
2019-02-25T00:43:10.389Z,57.60
2019-02-25T00:45:39.803Z,57.10
2019-02-25T00:48:09.251Z,57.50
2019-02-25T00:50:38.675Z,56.90
2019-02-25T00:53:08.150Z,57.00
2019-02-25T00:55:37.567Z,57.10
2019-02-25T00:58:07.007Z,56.40
2019-02-25T01:00:36.814Z,57.30
2019-02-25T01:03:06.820Z,57.20
2019-02-25T01:05:36.424Z,57.40
2019-02-25T01:08:07.831Z,58.30
2019-02-25T01:10:37.347Z,58.30
2019-02-25T01:13:06.785Z,58.70
2019-02-25T01:15:36.894Z,58.80
2019-02-25T01:18:06.410Z,58.20
2019-02-25T01:20:35.832Z,58.40
2019-02-25T01:23:05.339Z,58.50
2019-02-25T01:25:34.777Z,58.10
2019-02-25T01:28:04.223Z,58.30
2019-02-25T01:30:33.647Z,58.20
2019-02-25T01:33:03.098Z,58.50
2019-02-25T01:35:32.711Z,59.00
2019-02-25T01:38:02.149Z,58.60
2019-02-25T01:40:31.610Z,58.90
2019-02-25T01:43:01.049Z,58.50
2019-02-25T01:45:30.534Z,58.10
2019-02-25T01:47:59.955Z,58.10
2019-02-25T01:50:29.377Z,58.60
2019-02-25T01:52:58.837Z,58.60
2019-02-25T01:55:28.250Z,58.80
2019-02-25T01:57:57.699Z,58.40
2019-02-25T02:00:27.305Z,58.40
2019-02-25T02:02:56.745Z,58.60
2019-02-25T02:05:26.179Z,58.70
2019-02-25T02:07:55.609Z,58.80
2019-02-25T02:10:25.065Z,58.90
2019-02-25T02:12:54.522Z,58.50
2019-02-25T02:15:23.969Z,58.60
2019-02-25T02:17:53.399Z,58.90
2019-02-25T02:20:22.843Z,58.90
2019-02-25T02:22:52.278Z,59.10
2019-02-25T02:25:21.718Z,59.10
2019-02-25T02:27:51.141Z,58.90
2019-02-25T02:30:22.298Z,58.70
2019-02-25T02:32:51.753Z,58.70
2019-02-25T02:35:21.169Z,58.70
2019-02-25T02:37:50.597Z,58.70
2019-02-25T02:40:20.066Z,58.70
2019-02-25T02:43:01.751Z,59.00
2019-02-25T02:45:45.051Z,58.90
2019-02-25T02:48:19.420Z,58.90
2019-02-25T02:50:48.920Z,58.70
2019-02-25T02:53:18.325Z,58.40
2019-02-25T02:55:47.765Z,58.50
2019-02-25T02:58:17.237Z,58.70
2019-02-25T03:00:46.690Z,59.00
2019-02-25T03:03:16.131Z,59.10
2019-02-25T03:05:45.553Z,58.60
2019-02-25T03:08:14.969Z,58.50
2019-02-25T03:10:44.418Z,58.60
2019-02-25T03:13:13.850Z,58.70
2019-02-25T03:15:43.366Z,58.60
2019-02-25T03:18:12.796Z,58.50
2019-02-25T03:20:42.242Z,59.00
2019-02-25T03:23:11.663Z,58.90
2019-02-25T03:25:41.180Z,58.90
2019-02-25T03:28:10.862Z,59.00
2019-02-25T03:30:40.319Z,59.10
2019-02-25T03:33:09.745Z,58.90
2019-02-25T03:35:39.180Z,58.80
2019-02-25T03:38:08.621Z,58.90
2019-02-25T03:40:38.074Z,59.00
2019-02-25T03:43:07.494Z,58.60
2019-02-25T03:45:36.931Z,58.90
2019-02-25T03:48:06.359Z,58.90
2019-02-25T03:50:35.804Z,58.70
2019-02-25T03:53:05.234Z,58.10
2019-02-25T03:55:34.669Z,57.80
2019-02-25T03:58:04.103Z,57.70
2019-02-25T04:00:33.595Z,57.80
2019-02-25T04:03:03.045Z,57.90
2019-02-25T04:05:32.782Z,58.00
2019-02-25T04:08:02.215Z,58.50
2019-02-25T04:10:31.662Z,58.50
2019-02-25T04:13:01.090Z,59.20
2019-02-25T04:15:35.123Z,58.50
2019-02-25T04:18:04.574Z,58.80
2019-02-25T04:20:34.009Z,58.90
2019-02-25T04:23:03.437Z,59.00
2019-02-25T04:25:32.891Z,59.20
2019-02-25T04:28:02.339Z,59.70
2019-02-25T04:30:31.783Z,59.80
2019-02-25T04:33:01.224Z,60.30
2019-02-25T04:35:30.674Z,60.60
2019-02-25T04:38:02.624Z,60.90
2019-02-25T04:40:31.260Z,60.80
2019-02-25T04:43:00.692Z,62.00
2019-02-25T04:45:30.124Z,61.20
2019-02-25T04:47:59.560Z,61.50
2019-02-25T04:50:28.996Z,61.70
2019-02-25T04:52:58.467Z,62.00
2019-02-25T04:55:27.904Z,62.10
2019-02-25T04:57:57.342Z,62.00
2019-02-25T05:00:27.715Z,62.40
2019-02-25T05:02:57.143Z,62.40
2019-02-25T05:05:26.609Z,63.20
2019-02-25T05:07:56.034Z,62.80
2019-02-25T05:10:25.471Z,62.90
2019-02-25T05:13:02.910Z,63.20
2019-02-25T05:15:33.968Z,62.90
2019-02-25T05:18:03.471Z,62.20
2019-02-25T05:20:33.005Z,62.70
2019-02-25T05:23:02.401Z,63.10
2019-02-25T05:25:31.856Z,63.00
2019-02-25T05:28:01.284Z,62.80
2019-02-25T05:30:30.734Z,62.80
2019-02-25T05:33:00.230Z,63.00
2019-02-25T05:35:29.684Z,63.20
2019-02-25T05:37:59.106Z,63.20
2019-02-25T05:40:28.567Z,63.80
2019-02-25T05:42:57.970Z,63.60
2019-02-25T05:45:27.409Z,63.90
2019-02-25T05:47:56.836Z,63.90
2019-02-25T05:50:26.287Z,64.10
2019-02-25T05:52:55.728Z,64.00
2019-02-25T05:55:25.163Z,64.00
2019-02-25T05:57:54.610Z,63.60
2019-02-25T06:00:34.875Z,63.40
2019-02-25T06:03:04.334Z,63.30
2019-02-25T06:05:33.979Z,63.40
2019-02-25T06:08:03.408Z,63.30
2019-02-25T06:10:32.892Z,63.50
2019-02-25T06:13:02.399Z,63.40
2019-02-25T06:15:31.850Z,63.70
2019-02-25T06:18:01.334Z,63.60
2019-02-25T06:20:30.777Z,63.60
2019-02-25T06:23:00.327Z,63.60
2019-02-25T06:25:29.788Z,63.90
2019-02-25T06:27:59.277Z,64.00
2019-02-25T06:30:28.739Z,64.40
2019-02-25T06:32:58.847Z,64.70
2019-02-25T06:35:28.846Z,64.30
2019-02-25T06:37:58.767Z,63.90
2019-02-25T06:40:28.790Z,64.50
2019-02-25T06:42:58.332Z,64.40
2019-02-25T06:45:31.967Z,64.60
2019-02-25T06:48:01.397Z,64.60
2019-02-25T06:50:31.004Z,64.70
2019-02-25T06:53:02.171Z,64.70
2019-02-25T06:55:31.608Z,64.90
2019-02-25T06:58:01.130Z,65.00
2019-02-25T07:00:30.605Z,64.90
2019-02-25T07:03:00.123Z,64.90
2019-02-25T07:05:31.518Z,64.80
2019-02-25T07:08:09.520Z,64.80
2019-02-25T07:10:43.297Z,64.40
2019-02-25T07:13:17.851Z,63.40
2019-02-25T07:15:50.045Z,61.80
2019-02-25T07:18:23.884Z,61.00
2019-02-25T07:20:55.408Z,61.30
2019-02-25T07:23:30.390Z,60.40
2019-02-25T07:26:17.730Z,59.70
2019-02-25T07:28:48.846Z,58.90
2019-02-25T07:31:31.491Z,58.10
2019-02-25T07:34:20.935Z,57.30
2019-02-25T07:36:52.063Z,56.20
2019-02-25T07:39:32.102Z,54.40
2019-02-25T07:42:19.376Z,53.90
2019-02-25T07:44:56.286Z,53.10
2019-02-25T07:47:45.719Z,52.90
2019-02-25T07:50:32.243Z,52.50
2019-02-25T07:53:06.057Z,52.10
2019-02-25T07:56:01.948Z,52.00
2019-02-25T07:58:28.453Z,51.00
2019-02-25T08:01:14.554Z,50.30
2019-02-25T08:03:51.351Z,49.10
2019-02-25T08:06:22.554Z,48.10
2019-02-25T08:08:53.728Z,46.90
2019-02-25T08:11:27.500Z,46.50
2019-02-25T08:14:07.272Z,46.40
2019-02-25T08:16:38.392Z,45.90
2019-02-25T08:19:12.187Z,45.00
2019-02-25T08:21:43.425Z,44.70
2019-02-25T08:24:13.248Z,43.80
2019-02-25T08:27:00.967Z,42.30
2019-02-25T08:29:30.575Z,42.10
2019-02-25T08:32:18.112Z,41.90
2019-02-25T08:34:53.856Z,41.30
2019-02-25T08:37:51.012Z,41.70
2019-02-25T08:40:39.051Z,42.20
2019-02-25T08:43:33.749Z,41.60
2019-02-25T08:46:16.977Z,40.40
2019-02-25T08:48:48.120Z,39.90
2019-02-25T08:51:17.685Z,40.60
2019-02-25T08:53:47.210Z,40.50
2019-02-25T08:56:16.772Z,44.40
2019-02-25T08:58:46.316Z,41.00
2019-02-25T09:01:15.863Z,42.40
2019-02-25T09:03:45.452Z,40.40
2019-02-25T09:06:14.920Z,40.00
2019-02-25T09:08:44.404Z,40.60
2019-02-25T09:11:14.498Z,40.50
2019-02-25T09:13:44.155Z,40.60
2019-02-25T09:16:13.662Z,40.70
2019-02-25T09:18:43.625Z,41.60
2019-02-25T09:21:13.745Z,42.50
2019-02-25T09:23:43.272Z,42.20
2019-02-25T09:26:13.949Z,41.50
2019-02-25T09:28:43.577Z,41.00
2019-02-25T09:31:15.076Z,42.30
2019-02-25T09:33:46.891Z,39.50
2019-02-25T09:36:17.677Z,37.80
2019-02-25T09:38:49.436Z,38.50
2019-02-25T09:41:18.922Z,37.40
2019-02-25T09:43:48.418Z,37.20
2019-02-25T09:46:17.958Z,36.40
2019-02-25T09:48:47.486Z,37.10
2019-02-25T09:51:16.954Z,37.40
2019-02-25T09:53:47.150Z,37.30
2019-02-25T09:56:17.068Z,36.90
2019-02-25T09:58:46.645Z,35.80
2019-02-25T10:01:16.146Z,35.90
2019-02-25T10:03:45.700Z,35.50
2019-02-25T10:06:15.192Z,35.30
2019-02-25T10:08:46.512Z,35.10
2019-02-25T10:11:16.847Z,36.10
2019-02-25T10:13:46.342Z,35.20
2019-02-25T10:16:15.815Z,35.40
2019-02-25T10:18:45.388Z,34.70
2019-02-25T10:21:14.982Z,34.10
2019-02-25T10:23:44.504Z,34.70
2019-02-25T10:26:13.990Z,34.60
2019-02-25T10:28:43.934Z,35.10
2019-02-25T10:31:15.303Z,33.90
2019-02-25T10:33:45.903Z,41.90
2019-02-25T10:36:15.388Z,38.10
2019-02-25T10:38:44.870Z,39.40
2019-02-25T10:41:14.369Z,37.10
2019-02-25T10:43:43.883Z,36.20
2019-02-25T10:46:15.362Z,36.40
2019-02-25T10:48:44.610Z,36.10
2019-02-25T10:51:14.155Z,35.60
2019-02-25T10:53:45.270Z,35.80
2019-02-25T10:56:25.945Z,35.90
2019-02-25T10:58:55.633Z,35.50
2019-02-25T11:01:25.559Z,35.50
2019-02-25T11:03:55.446Z,35.00
2019-02-25T11:06:27.343Z,34.60
2019-02-25T11:08:58.248Z,35.00
2019-02-25T11:11:29.356Z,34.40
2019-02-25T11:14:00.862Z,34.50
2019-02-25T11:16:30.268Z,39.00
2019-02-25T11:19:00.912Z,35.80
2019-02-25T11:21:30.536Z,36.30
2019-02-25T11:24:00.016Z,34.80
2019-02-25T11:26:30.625Z,34.20
2019-02-25T11:29:00.727Z,35.30
2019-02-25T11:31:30.209Z,35.90
2019-02-25T11:34:00.705Z,34.80
2019-02-25T11:36:30.865Z,34.70
2019-02-25T11:39:02.364Z,35.90
2019-02-25T11:41:33.753Z,34.60
2019-02-25T11:44:02.861Z,33.80
2019-02-25T11:46:33.322Z,34.50
2019-02-25T11:49:02.810Z,34.10
2019-02-25T11:51:32.269Z,34.40
2019-02-25T11:54:01.839Z,33.50
2019-02-25T11:56:31.875Z,34.50
2019-02-25T11:59:02.373Z,36.30
2019-02-25T12:01:31.880Z,36.20
2019-02-25T12:04:01.373Z,35.70
2019-02-25T12:06:30.963Z,35.00
2019-02-25T12:09:01.016Z,36.00
2019-02-25T12:11:30.931Z,36.40
2019-02-25T12:14:00.413Z,35.30
2019-02-25T12:16:29.938Z,35.90
2019-02-25T12:18:59.446Z,36.30
2019-02-25T12:21:29.060Z,36.90
2019-02-25T12:23:58.511Z,38.50
2019-02-25T12:26:28.973Z,39.30
2019-02-25T12:28:58.438Z,39.50
2019-02-25T12:31:27.901Z,43.90
2019-02-25T12:33:57.428Z,42.80
2019-02-25T12:36:26.992Z,41.30
2019-02-25T12:38:56.527Z,41.40
2019-02-25T12:41:27.347Z,41.10
2019-02-25T12:43:57.605Z,42.60
2019-02-25T12:46:27.699Z,41.90
2019-02-25T12:48:57.097Z,42.80
2019-02-25T12:51:26.607Z,43.90
2019-02-25T12:53:56.133Z,43.00
2019-02-25T12:56:25.584Z,43.50
2019-02-25T12:58:55.047Z,44.30
2019-02-25T13:01:25.752Z,45.10
2019-02-25T13:03:55.282Z,46.00
2019-02-25T13:06:24.902Z,45.30
2019-02-25T13:08:54.390Z,45.40
2019-02-25T13:11:23.901Z,45.50
2019-02-25T13:13:53.435Z,45.00
2019-02-25T13:16:22.954Z,44.90
2019-02-25T13:18:53.020Z,44.80
2019-02-25T13:21:22.932Z,45.20
2019-02-25T13:23:52.408Z,45.00
2019-02-25T13:26:21.892Z,44.70
2019-02-25T13:28:51.349Z,46.10
2019-02-25T13:31:21.039Z,45.90
2019-02-25T13:33:50.601Z,45.60
2019-02-25T13:36:20.094Z,45.20
2019-02-25T13:38:49.651Z,45.60
2019-02-25T13:41:19.155Z,45.30
2019-02-25T13:43:48.655Z,46.90
2019-02-25T13:46:18.514Z,46.70
2019-02-25T13:48:48.533Z,47.50
2019-02-25T13:51:18.087Z,48.20
2019-02-25T13:56:17.155Z,47.90
2019-02-25T13:58:46.584Z,48.10
2019-02-25T14:01:16.704Z,48.70
2019-02-25T14:03:47.289Z,48.90
2019-02-25T14:06:17.713Z,48.90
2019-02-25T14:08:47.249Z,49.30
2019-02-25T14:11:16.697Z,48.70
2019-02-25T14:13:46.137Z,49.00
2019-02-25T14:16:15.615Z,48.40
2019-02-25T14:18:45.211Z,47.60
2019-02-25T14:21:16.593Z,47.70
2019-02-25T14:23:45.983Z,46.80
2019-02-25T14:26:15.433Z,46.80
2019-02-25T14:28:46.713Z,47.10
2019-02-25T14:31:16.027Z,47.30
2019-02-25T14:33:45.466Z,47.90
2019-02-25T14:36:14.911Z,47.90
2019-02-25T14:38:44.431Z,48.00
2019-02-25T14:41:16.015Z,48.60
2019-02-25T14:43:47.036Z,48.40
2019-02-25T14:46:17.331Z,48.50
2019-02-25T14:48:47.411Z,48.40
2019-02-25T14:51:16.860Z,49.00
2019-02-25T14:53:47.462Z,48.50
2019-02-25T14:56:17.476Z,48.70
2019-02-25T14:58:47.774Z,48.90
2019-02-25T15:01:18.146Z,49.80
2019-02-25T15:03:48.503Z,48.90
2019-02-25T15:06:17.966Z,49.40
2019-02-25T15:08:47.411Z,50.60
2019-02-25T15:11:16.868Z,50.80
2019-02-25T15:13:46.572Z,50.70
2019-02-25T15:16:16.015Z,51.50
2019-02-25T15:18:45.454Z,51.70
2019-02-25T15:21:15.963Z,52.30
2019-02-25T15:23:45.587Z,53.10
2019-02-25T15:26:16.824Z,53.90
2019-02-25T15:28:46.212Z,53.80
2019-02-25T15:31:16.456Z,54.20
2019-02-25T15:33:46.095Z,54.40
2019-02-25T15:36:17.787Z,54.50
2019-02-25T15:38:46.801Z,54.60
2019-02-25T15:41:16.247Z,54.50
2019-02-25T15:43:45.674Z,54.70
2019-02-25T15:46:16.692Z,54.60
2019-02-25T15:48:46.464Z,55.10
2019-02-25T15:51:18.319Z,55.30
2019-02-25T15:53:49.043Z,55.70
2019-02-25T15:56:18.536Z,56.00
2019-02-25T15:58:49.045Z,56.10
2019-02-25T16:01:19.502Z,56.10
2019-02-25T16:03:48.981Z,56.40
2019-02-25T16:06:18.869Z,56.70
2019-02-25T16:08:50.393Z,57.10
2019-02-25T16:11:22.346Z,57.30
2019-02-25T16:13:53.386Z,57.50
2019-02-25T16:16:22.852Z,57.60
2019-02-25T16:18:53.489Z,58.00
2019-02-25T16:21:24.440Z,58.40
2019-02-25T16:23:54.257Z,58.30
2019-02-25T16:26:23.699Z,58.80
2019-02-25T16:28:55.138Z,59.20
2019-02-25T16:31:25.997Z,59.50
2019-02-25T16:33:57.511Z,59.70
2019-02-25T16:36:28.265Z,60.10
2019-02-25T16:38:58.573Z,60.60
2019-02-25T16:41:32.149Z,60.70
2019-02-25T16:44:02.018Z,61.00
2019-02-25T16:46:34.437Z,61.10
2019-02-25T16:49:02.619Z,61.40
2019-02-25T16:51:35.193Z,61.60
2019-02-25T16:54:21.156Z,62.00
2019-02-25T16:56:50.672Z,62.10
2019-02-25T16:59:20.707Z,62.30
2019-02-25T17:01:51.396Z,62.50
2019-02-25T17:04:22.853Z,62.80
2019-02-25T17:06:53.547Z,62.80
2019-02-25T17:09:24.666Z,63.20
2019-02-25T17:11:54.127Z,63.60
2019-02-25T17:14:25.472Z,63.80
2019-02-25T17:16:56.533Z,64.00
2019-02-25T17:19:25.919Z,64.00
2019-02-25T17:21:55.385Z,64.20
2019-02-25T17:24:26.483Z,64.30
2019-02-25T17:26:56.279Z,64.50
2019-02-25T17:29:26.573Z,64.90
2019-02-25T17:31:57.538Z,64.70
2019-02-25T17:34:28.094Z,65.00
2019-02-25T17:36:57.905Z,65.10
2019-02-25T17:39:28.953Z,65.00
2019-02-25T17:41:59.415Z,65.40
2019-02-25T17:44:30.493Z,65.40
2019-02-25T17:47:02.214Z,65.40
2019-02-25T17:49:32.345Z,65.60
2019-02-25T17:52:03.398Z,65.90
2019-02-25T17:54:33.504Z,66.10
2019-02-25T17:57:05.421Z,66.20
2019-02-25T17:59:35.302Z,66.00
2019-02-25T18:02:06.655Z,66.20
2019-02-25T18:04:36.064Z,66.20
2019-02-25T18:07:05.690Z,66.40
2019-02-25T18:09:36.243Z,66.60
2019-02-25T18:12:08.600Z,66.70
2019-02-25T18:14:39.012Z,66.80
2019-02-25T18:17:10.324Z,66.90
2019-02-25T18:19:41.738Z,67.10
2019-02-25T18:22:13.781Z,67.40
2019-02-25T18:24:43.851Z,67.60
2019-02-25T18:27:13.784Z,67.60
2019-02-25T18:29:43.986Z,67.80
2019-02-25T18:32:14.420Z,68.00
2019-02-25T18:34:44.162Z,68.10
2019-02-25T18:37:15.457Z,68.30
2019-02-25T18:39:45.654Z,68.40
2019-02-25T18:42:16.289Z,68.40
2019-02-25T18:44:48.659Z,68.80
2019-02-25T18:47:18.432Z,69.00
2019-02-25T18:49:49.992Z,69.10
2019-02-25T18:52:20.539Z,68.90
2019-02-25T18:54:49.994Z,69.20
2019-02-25T18:57:20.969Z,69.10
2019-02-25T18:59:50.627Z,69.30
2019-02-25T19:02:20.396Z,69.40
2019-02-25T19:04:49.880Z,69.80
2019-02-25T19:07:19.693Z,70.00
2019-02-25T19:09:49.804Z,70.00
2019-02-25T19:12:20.384Z,69.90
2019-02-25T19:14:53.005Z,70.10
2019-02-25T19:17:22.764Z,70.20
2019-02-25T19:19:52.347Z,70.40
2019-02-25T19:22:22.194Z,70.50
2019-02-25T19:24:51.663Z,71.60
2019-02-25T19:27:21.101Z,71.80
2019-02-25T19:29:51.538Z,72.00
2019-02-25T19:32:22.935Z,72.30
2019-02-25T19:34:54.098Z,72.40
2019-02-25T19:37:28.944Z,72.50
2019-02-25T19:39:55.373Z,72.50
2019-02-25T19:42:26.817Z,72.60
2019-02-25T19:45:13.295Z,72.80
2019-02-25T19:47:43.382Z,73.00
2019-02-25T19:50:16.499Z,73.20
2019-02-25T19:52:46.703Z,73.50
2019-02-25T19:55:18.337Z,73.50
2019-02-25T19:57:48.442Z,73.60
2019-02-25T20:00:37.602Z,73.60
2019-02-25T20:03:26.397Z,74.30
2019-02-25T20:06:16.726Z,74.40
2019-02-25T20:08:58.798Z,74.10
2019-02-25T20:11:48.705Z,73.90
2019-02-25T20:14:37.496Z,74.10
2019-02-25T20:17:28.404Z,74.30
2019-02-25T20:20:16.821Z,74.40
2019-02-25T20:23:06.194Z,74.60
2019-02-25T20:25:36.777Z,75.30
2019-02-25T20:28:06.586Z,75.60
2019-02-25T20:30:36.492Z,75.80
2019-02-25T20:33:06.935Z,75.60
2019-02-25T20:35:37.105Z,75.40
2019-02-25T20:38:06.539Z,75.20
2019-02-25T20:40:36.015Z,75.20
2019-02-25T20:43:05.505Z,75.30
2019-02-25T20:45:36.006Z,75.20
2019-02-25T20:48:06.077Z,74.90
2019-02-25T20:50:35.521Z,74.70
2019-02-25T20:53:06.526Z,74.70
2019-02-25T20:55:36.428Z,74.80
2019-02-25T20:58:06.360Z,74.90
2019-02-25T21:00:39.077Z,75.10
2019-02-25T21:03:06.982Z,75.70
2019-02-25T21:05:36.429Z,76.20
2019-02-25T21:08:06.035Z,76.00
2019-02-25T21:10:35.789Z,76.00
2019-02-25T21:13:05.468Z,76.30
2019-02-25T21:15:36.374Z,76.00
2019-02-25T21:18:07.715Z,76.20
2019-02-25T21:20:37.237Z,76.30
2019-02-25T21:23:08.495Z,76.20
2019-02-25T21:25:38.685Z,76.50
2019-02-25T21:28:09.067Z,76.20
2019-02-25T21:30:41.347Z,76.50
2019-02-25T21:33:13.255Z,76.10
2019-02-25T21:35:41.958Z,75.80
2019-02-25T21:38:11.540Z,75.70
2019-02-25T21:40:40.981Z,75.90
2019-02-25T21:43:14.461Z,76.00
2019-02-25T21:45:41.571Z,76.10
2019-02-25T21:48:11.002Z,76.20
2019-02-25T21:50:42.607Z,76.20
2019-02-25T21:53:13.816Z,76.60
2019-02-25T21:55:42.786Z,76.30
2019-02-25T21:58:12.692Z,76.30
2019-02-25T22:00:42.709Z,76.40
2019-02-25T22:03:14.587Z,76.40
2019-02-25T22:05:43.316Z,76.50
2019-02-25T22:08:12.741Z,76.40
2019-02-25T22:10:44.092Z,76.60
2019-02-25T22:13:14.322Z,76.80
2019-02-25T22:15:45.273Z,76.80
2019-02-25T22:18:14.699Z,77.20
2019-02-25T22:20:45.289Z,76.90
2019-02-25T22:23:15.297Z,77.10
2019-02-25T22:25:44.733Z,77.10
2019-02-25T22:28:14.173Z,77.20
2019-02-25T22:30:45.148Z,77.10
2019-02-25T22:33:26.695Z,77.10
2019-02-25T22:35:47.543Z,77.00
2019-02-25T22:38:17.931Z,77.30
2019-02-25T22:40:47.452Z,77.10
2019-02-25T22:43:18.578Z,77.10
2019-02-25T22:45:48.091Z,76.90
2019-02-25T22:48:19.105Z,77.10
2019-02-25T22:50:51.281Z,77.40
2019-02-25T22:53:19.864Z,77.40
2019-02-25T22:55:49.897Z,77.20
2019-02-25T22:58:20.462Z,77.40
2019-02-25T23:00:52.794Z,77.20
2019-02-25T23:03:24.907Z,77.10
2019-02-25T23:05:55.194Z,77.10
2019-02-25T23:08:26.025Z,77.10
2019-02-25T23:10:55.605Z,77.30
2019-02-25T23:13:27.369Z,77.40
2019-02-25T23:15:56.261Z,77.50
2019-02-25T23:18:27.929Z,77.50
2019-02-25T23:20:59.666Z,77.60
2019-02-25T23:23:28.658Z,77.60
2019-02-25T23:25:59.173Z,77.70
2019-02-25T23:28:30.409Z,77.80
2019-02-25T23:30:59.773Z,78.00
2019-02-25T23:33:29.215Z,78.10
2019-02-25T23:35:58.715Z,77.80
2019-02-25T23:38:28.157Z,77.80
2019-02-25T23:41:01.331Z,77.90
2019-02-25T23:43:28.768Z,78.20
2019-02-25T23:46:00.053Z,78.30
2019-02-25T23:48:32.906Z,78.50
2019-02-25T23:51:00.509Z,78.50
2019-02-25T23:53:31.054Z,78.80
2019-02-25T23:56:01.125Z,78.90
2019-02-25T23:58:30.564Z,78.90
